Time;durP1;ratioP1;P1;durP2;ratioP2;P2;SDS_P1;SDS_P2;PMS_P1;PMS_P2;Temp;Humidity;BMP_temperature;BMP_pressure;BME280_temperature;BME280_humidity;BME280_pressure;Samples;Min_cycle;Max_cycle;Signal;HPM_P1;HPM_P2
2023/09/15 00:01:51;;;;;;;1.50;1.00;;;14.50;98.20;;;;;;4938252;28;20597;-83
2023/09/15 00:04:18;;;;;;;1.50;1.00;;;14.50;98.20;;;;;;4950921;29;20550;-83
2023/09/15 00:06:47;;;;;;;1.50;1.10;;;14.50;98.20;;;;;;4931226;28;20593;-83
2023/09/15 00:09:15;;;;;;;1.50;1.00;;;14.50;98.20;;;;;;4947876;29;20999;-83
2023/09/15 00:11:42;;;;;;;1.50;1.00;;;14.50;98.20;;;;;;4932059;28;20479;-83
2023/09/15 00:14:10;;;;;;;1.50;1.00;;;14.50;98.20;;;;;;4952240;29;20486;-83
2023/09/15 00:16:38;;;;;;;1.50;1.10;;;14.50;98.20;;;;;;4934283;29;20486;-83
2023/09/15 00:19:07;;;;;;;1.50;1.00;;;14.50;98.20;;;;;;4952886;29;20478;-82
2023/09/15 00:21:34;;;;;;;1.50;1.00;;;14.50;98.20;;;;;;4938727;28;20710;-84
2023/09/15 00:24:02;;;;;;;1.50;1.00;;;14.40;98.20;;;;;;4945123;29;20496;-82
2023/09/15 00:26:30;;;;;;;1.50;1.00;;;14.40;98.20;;;;;;4928458;28;20479;-83
2023/09/15 00:28:57;;;;;;;1.50;1.00;;;14.40;98.20;;;;;;4943732;29;20473;-83
2023/09/15 00:31:24;;;;;;;1.50;1.00;;;14.40;98.20;;;;;;4930156;28;20541;-83
2023/09/15 00:33:51;;;;;;;1.50;1.00;;;14.40;98.20;;;;;;4946011;29;20496;-81
2023/09/15 00:36:19;;;;;;;1.50;1.00;;;14.40;98.20;;;;;;4930174;28;20486;-82
2023/09/15 00:38:46;;;;;;;1.50;1.00;;;14.40;98.20;;;;;;4950487;29;20459;-82
2023/09/15 00:41:13;;;;;;;1.53;1.10;;;14.40;98.20;;;;;;4933649;28;20483;-82
2023/09/15 00:43:40;;;;;;;1.80;1.60;;;14.40;98.20;;;;;;4948886;28;20494;-82
2023/09/15 00:46:09;;;;;;;1.50;1.00;;;14.40;98.20;;;;;;4929606;28;20492;-82
2023/09/15 00:48:37;;;;;;;1.50;1.00;;;14.40;98.20;;;;;;4947912;29;20480;-81
2023/09/15 00:51:06;;;;;;;1.50;1.00;;;14.40;98.20;;;;;;4935134;28;20487;-81
2023/09/15 00:53:37;;;;;;;1.50;1.03;;;14.40;98.20;;;;;;4942775;29;20981;-82
2023/09/15 00:56:05;;;;;;;1.50;1.00;;;14.30;98.20;;;;;;4929304;28;20482;-81
2023/09/15 00:58:32;;;;;;;1.60;1.23;;;14.30;98.20;;;;;;4950788;29;20566;-82
2023/09/15 01:00:59;;;;;;;1.50;1.10;;;14.30;98.20;;;;;;4927193;28;20470;-81
2023/09/15 01:03:30;;;;;;;1.50;1.03;;;14.30;98.20;;;;;;4953822;29;20502;-82
2023/09/15 01:05:57;;;;;;;1.50;1.00;;;14.30;98.20;;;;;;4929564;28;20465;-81
2023/09/15 01:08:24;;;;;;;1.50;1.07;;;14.30;98.20;;;;;;4950285;29;20468;-82
2023/09/15 01:10:52;;;;;;;1.50;1.00;;;14.20;98.20;;;;;;4928313;28;20464;-82
2023/09/15 01:13:19;;;;;;;1.50;1.00;;;14.20;98.20;;;;;;4954179;29;20485;-82
2023/09/15 01:15:52;;;;;;;1.50;1.00;;;14.20;98.20;;;;;;4942595;29;20560;-81
2023/09/15 01:18:27;;;;;;;1.50;1.10;;;14.20;98.20;;;;;;4922299;29;20494;-82
2023/09/15 01:21:24;;;;;;;1.50;1.07;;;14.10;98.20;;;;;;4930244;28;20471;-81
2023/09/15 01:24:26;;;;;;;1.50;1.00;;;14.10;98.20;;;;;;4931797;29;20502;-81
2023/09/15 01:27:37;;;;;;;1.50;1.00;;;14.10;98.20;;;;;;4922346;28;20507;-81
2023/09/15 01:30:07;;;;;;;1.50;1.00;;;14.00;98.20;;;;;;4940145;29;20487;-83
2023/09/15 01:32:35;;;;;;;1.50;1.00;;;14.00;98.20;;;;;;4938198;28;20644;-82
2023/09/15 01:35:04;;;;;;;1.50;1.03;;;14.00;98.20;;;;;;4945525;29;20486;-81
2023/09/15 01:37:31;;;;;;;1.50;1.00;;;13.90;98.20;;;;;;4941245;28;20526;-81
2023/09/15 01:39:59;;;;;;;1.50;1.00;;;13.90;98.20;;;;;;4944749;29;20510;-81
2023/09/15 01:42:26;;;;;;;1.50;1.10;;;13.90;98.20;;;;;;4934643;28;20483;-82
2023/09/15 01:44:54;;;;;;;1.50;1.10;;;13.90;98.20;;;;;;5018437;23;20502;-81
2023/09/15 01:47:24;;;;;;;1.50;1.00;;;13.80;98.20;;;;;;4976589;28;20987;-81
2023/09/15 01:49:53;;;;;;;1.50;1.00;;;13.80;98.20;;;;;;4986741;28;20549;-81
2023/09/15 01:52:23;;;;;;;1.50;1.00;;;13.80;98.20;;;;;;4977452;28;20508;-82
2023/09/15 01:54:53;;;;;;;1.50;1.00;;;13.80;98.20;;;;;;4970301;28;20572;-77
2023/09/15 01:57:20;;;;;;;1.50;1.00;;;13.80;98.20;;;;;;4966414;28;20481;-80
2023/09/15 01:59:47;;;;;;;1.60;1.30;;;13.80;98.20;;;;;;4969653;28;20466;-78
2023/09/15 02:02:14;;;;;;;1.50;1.00;;;13.80;98.20;;;;;;4958658;28;20485;-80
2023/09/15 02:04:43;;;;;;;1.50;1.00;;;13.80;98.20;;;;;;4974485;28;20609;-81
2023/09/15 02:07:10;;;;;;;1.50;1.00;;;13.70;98.20;;;;;;4966979;28;20524;-82
2023/09/15 02:09:38;;;;;;;3.60;1.50;;;13.80;98.20;;;;;;4969872;28;20478;-82
2023/09/15 02:12:05;;;;;;;1.50;1.10;;;13.80;98.20;;;;;;4966435;28;20943;-80
2023/09/15 02:14:34;;;;;;;1.50;1.00;;;13.80;98.20;;;;;;4975281;28;20478;-80
2023/09/15 02:17:01;;;;;;;1.50;1.07;;;13.80;98.20;;;;;;4958496;28;20480;-81
2023/09/15 02:19:29;;;;;;;1.50;1.00;;;13.70;98.20;;;;;;4963502;28;20462;-82
2023/09/15 02:21:57;;;;;;;1.50;1.00;;;13.70;98.20;;;;;;4966696;28;20480;-82
2023/09/15 02:24:24;;;;;;;1.53;1.10;;;13.70;98.20;;;;;;4974219;28;20490;-79
2023/09/15 02:26:51;;;;;;;1.50;1.10;;;13.60;98.20;;;;;;4961364;28;20948;-81
2023/09/15 02:29:18;;;;;;;1.50;1.00;;;13.60;98.20;;;;;;4962376;28;20520;-80
2023/09/15 02:31:45;;;;;;;1.50;1.00;;;13.60;98.20;;;;;;4957546;28;20544;-82
2023/09/15 02:34:12;;;;;;;1.50;1.10;;;13.60;98.20;;;;;;4972129;28;20548;-81
2023/09/15 02:36:39;;;;;;;1.50;1.00;;;13.60;98.20;;;;;;4962921;28;20576;-79
2023/09/15 02:39:08;;;;;;;1.50;1.10;;;13.60;98.20;;;;;;4976666;28;20536;-81
2023/09/15 02:41:35;;;;;;;1.50;1.07;;;13.60;98.20;;;;;;4961917;28;20485;-80
2023/09/15 02:44:02;;;;;;;1.50;1.10;;;13.50;98.20;;;;;;4975961;28;20481;-80
2023/09/15 02:46:29;;;;;;;1.50;1.10;;;13.50;98.20;;;;;;4965373;28;20523;-81
2023/09/15 02:48:57;;;;;;;1.50;1.07;;;13.50;98.20;;;;;;4974204;28;20486;-81
2023/09/15 02:51:24;;;;;;;1.50;1.07;;;13.50;98.20;;;;;;4960475;28;20473;-82
2023/09/15 02:53:51;;;;;;;1.50;1.00;;;13.40;98.20;;;;;;4981662;28;20574;-80
2023/09/15 02:56:22;;;;;;;1.50;1.00;;;13.40;98.20;;;;;;4961194;28;20525;-80
2023/09/15 02:58:49;;;;;;;1.53;1.07;;;13.40;98.20;;;;;;4975946;28;20912;-81
2023/09/15 03:01:16;;;;;;;1.50;1.10;;;13.40;98.20;;;;;;4960562;28;20472;-79
2023/09/15 03:03:43;;;;;;;1.50;1.10;;;13.40;98.20;;;;;;4974202;28;20903;-80
2023/09/15 03:06:12;;;;;;;1.70;1.43;;;13.30;98.20;;;;;;4957738;28;20481;-82
2023/09/15 03:08:40;;;;;;;1.50;1.07;;;13.30;98.20;;;;;;4974647;28;20461;-81
2023/09/15 03:11:13;;;;;;;1.50;1.07;;;13.30;98.20;;;;;;4956566;28;20478;-81
2023/09/15 03:13:42;;;;;;;1.60;1.10;;;13.30;98.20;;;;;;4982532;28;20540;-80
2023/09/15 03:16:11;;;;;;;1.50;1.10;;;13.30;98.20;;;;;;4959500;28;20479;-82
2023/09/15 03:18:38;;;;;;;1.53;1.10;;;13.30;98.20;;;;;;4987506;28;20466;-81
2023/09/15 03:21:06;;;;;;;1.50;1.00;;;13.40;98.20;;;;;;4965233;28;20818;-80
2023/09/15 03:23:33;;;;;;;1.50;1.00;;;13.30;98.20;;;;;;4983047;28;20509;-81
2023/09/15 03:26:01;;;;;;;1.50;1.00;;;13.30;98.20;;;;;;4961330;28;20557;-80
2023/09/15 03:28:28;;;;;;;1.50;1.03;;;13.30;98.20;;;;;;4984069;28;20468;-81
2023/09/15 03:30:56;;;;;;;1.50;1.07;;;13.30;98.20;;;;;;4961849;28;20477;-81
2023/09/15 03:33:27;;;;;;;1.50;1.00;;;13.30;98.20;;;;;;4987494;28;20773;-82
2023/09/15 03:35:55;;;;;;;1.50;1.10;;;13.30;98.20;;;;;;4967693;28;20542;-80
2023/09/15 03:38:22;;;;;;;1.50;1.10;;;13.20;98.20;;;;;;4987407;28;20554;-78
2023/09/15 03:40:49;;;;;;;1.50;1.00;;;13.20;98.20;;;;;;4966460;28;20461;-81
2023/09/15 03:43:16;;;;;;;1.50;1.00;;;13.20;98.20;;;;;;4961710;28;20960;-79
2023/09/15 03:45:44;;;;;;;1.50;0.97;;;13.20;98.20;;;;;;4970551;28;21220;-79
2023/09/15 03:48:13;;;;;;;1.50;1.10;;;13.20;98.20;;;;;;4957646;28;20544;-77
2023/09/15 03:50:40;;;;;;;1.50;1.00;;;13.30;98.20;;;;;;4973283;28;20855;-79
2023/09/15 03:53:07;;;;;;;1.50;1.00;;;13.30;98.20;;;;;;4984461;28;21015;-81
2023/09/15 03:55:35;;;;;;;1.57;1.10;;;13.20;98.20;;;;;;4967604;28;20574;-81
2023/09/15 03:58:03;;;;;;;1.53;1.10;;;13.20;98.20;;;;;;4975938;28;20509;-82
2023/09/15 04:00:30;;;;;;;1.50;1.10;;;13.20;98.20;;;;;;4969035;28;20465;-80
2023/09/15 04:02:57;;;;;;;1.50;1.10;;;13.20;98.20;;;;;;4978552;28;20485;-81
2023/09/15 04:05:26;;;;;;;1.50;1.00;;;13.20;98.20;;;;;;4973717;28;20466;-80
2023/09/15 04:07:53;;;;;;;1.50;1.00;;;13.10;98.20;;;;;;4974427;28;21057;-82
2023/09/15 04:10:20;;;;;;;1.50;1.10;;;13.10;98.20;;;;;;4970611;28;20470;-79
2023/09/15 04:12:47;;;;;;;1.50;1.10;;;13.10;98.20;;;;;;4978320;28;20568;-80
2023/09/15 04:15:15;;;;;;;1.50;1.10;;;13.10;98.20;;;;;;4972211;28;20525;-79
2023/09/15 04:17:42;;;;;;;1.50;1.10;;;13.00;98.20;;;;;;4977029;28;20512;-80
2023/09/15 04:20:10;;;;;;;1.50;1.07;;;13.00;98.20;;;;;;4973603;28;20646;-82
2023/09/15 04:22:40;;;;;;;1.50;1.10;;;13.00;98.20;;;;;;4978478;28;20885;-79
2023/09/15 04:25:09;;;;;;;1.50;1.10;;;13.00;98.20;;;;;;4971780;28;20557;-82
2023/09/15 04:27:37;;;;;;;1.50;1.10;;;13.00;98.20;;;;;;4963697;28;20809;-81
2023/09/15 04:30:05;;;;;;;1.53;1.10;;;12.90;98.20;;;;;;4973053;28;20516;-81
2023/09/15 04:32:32;;;;;;;1.50;1.07;;;12.90;98.20;;;;;;4979373;28;20483;-78
2023/09/15 04:34:59;;;;;;;1.50;1.00;;;13.00;98.20;;;;;;4968292;28;20525;-80
2023/09/15 04:37:26;;;;;;;1.50;1.10;;;13.00;98.20;;;;;;4970406;28;20481;-80
2023/09/15 04:39:55;;;;;;;1.50;1.00;;;13.00;98.20;;;;;;4978386;28;20576;-80
2023/09/15 04:42:22;;;;;;;1.53;1.20;;;13.00;98.20;;;;;;4976476;28;20477;-82
2023/09/15 04:44:49;;;;;;;1.57;1.10;;;13.00;98.20;;;;;;4969275;28;21302;-82
2023/09/15 04:47:31;;;;;;;1.50;1.10;;;13.00;98.20;;;;;;4971977;28;20500;-82
2023/09/15 04:49:58;;;;;;;1.50;1.07;;;13.00;98.20;;;;;;4979027;28;20497;-81
2023/09/15 04:52:25;;;;;;;1.50;1.10;;;13.00;98.20;;;;;;4971133;28;21142;-81
2023/09/15 04:54:55;;;;;;;1.50;1.10;;;13.00;98.20;;;;;;4969685;28;20573;-80
2023/09/15 04:57:23;;;;;;;1.57;1.13;;;13.00;98.20;;;;;;4957672;28;21044;-80
2023/09/15 04:59:53;;;;;;;1.60;1.30;;;13.00;98.20;;;;;;4963078;28;20572;-80
2023/09/15 05:02:20;;;;;;;1.53;1.00;;;13.00;98.20;;;;;;4962643;28;20517;-77
2023/09/15 05:04:47;;;;;;;1.50;1.10;;;13.00;98.20;;;;;;4969638;28;20580;-79
2023/09/15 05:07:15;;;;;;;1.50;1.07;;;13.00;98.20;;;;;;4952520;28;20482;-80
2023/09/15 05:09:41;;;;;;;1.50;1.17;;;13.00;98.20;;;;;;4971469;28;20477;-77
2023/09/15 05:12:10;;;;;;;1.50;1.10;;;13.00;98.20;;;;;;4967458;28;20963;-81
2023/09/15 05:14:37;;;;;;;1.50;1.10;;;12.90;98.20;;;;;;4972900;28;20529;-79
2023/09/15 05:17:04;;;;;;;1.50;1.00;;;12.90;98.20;;;;;;4968833;28;20504;-78
2023/09/15 05:19:31;;;;;;;1.53;1.00;;;12.90;98.20;;;;;;4968308;28;20897;-80
2023/09/15 05:21:58;;;;;;;1.50;1.07;;;12.90;98.20;;;;;;4967066;28;20481;-78
2023/09/15 05:24:25;;;;;;;1.53;1.07;;;13.00;98.20;;;;;;4973177;28;20493;-78
2023/09/15 05:26:52;;;;;;;1.50;1.10;;;13.00;98.20;;;;;;4957098;28;20509;-76
2023/09/15 05:29:20;;;;;;;1.50;1.07;;;13.00;98.20;;;;;;4961610;28;20462;-76
2023/09/15 05:31:47;;;;;;;1.50;1.10;;;13.00;98.20;;;;;;4963519;28;20950;-78
2023/09/15 05:34:14;;;;;;;1.53;1.10;;;13.00;98.20;;;;;;4974491;28;20527;-77
2023/09/15 05:36:41;;;;;;;1.50;1.07;;;13.00;98.20;;;;;;4956747;28;20570;-77
2023/09/15 05:39:09;;;;;;;1.50;1.00;;;13.00;98.20;;;;;;4972482;28;21304;-77
2023/09/15 05:41:36;;;;;;;1.50;1.10;;;13.00;98.20;;;;;;4964698;28;20482;-78
2023/09/15 05:44:03;;;;;;;1.50;1.10;;;13.00;98.20;;;;;;4979211;28;20569;-78
2023/09/15 05:46:31;;;;;;;1.60;1.30;;;13.00;98.20;;;;;;4962668;28;20478;-79
2023/09/15 05:48:58;;;;;;;1.50;1.10;;;13.00;98.20;;;;;;4977415;28;20458;-77
2023/09/15 05:51:25;;;;;;;1.50;1.10;;;13.10;98.20;;;;;;4962940;28;20485;-78
2023/09/15 05:53:51;;;;;;;1.50;1.07;;;13.10;98.20;;;;;;4980506;28;20487;-75
2023/09/15 05:56:19;;;;;;;1.50;1.00;;;13.20;98.20;;;;;;4960704;28;20889;-77
2023/09/15 05:58:46;;;;;;;1.50;1.10;;;13.20;98.20;;;;;;4974811;28;20925;-77
2023/09/15 06:01:13;;;;;;;1.50;1.10;;;13.30;98.20;;;;;;4961289;28;21307;-76
2023/09/15 06:03:42;;;;;;;1.50;1.10;;;13.30;98.20;;;;;;4980245;28;20488;-77
2023/09/15 06:06:09;;;;;;;1.50;1.00;;;13.40;98.20;;;;;;4964728;28;20533;-79
2023/09/15 06:08:36;;;;;;;1.50;1.00;;;13.40;98.20;;;;;;4980619;28;20585;-79
2023/09/15 06:11:03;;;;;;;1.50;1.00;;;13.50;98.20;;;;;;4955998;28;20470;-77
2023/09/15 06:13:30;;;;;;;1.50;1.10;;;13.60;98.20;;;;;;4974872;28;20486;-75
2023/09/15 06:15:57;;;;;;;1.50;1.10;;;13.70;98.20;;;;;;4960225;28;20490;-78
2023/09/15 06:18:24;;;;;;;1.50;1.10;;;13.90;98.20;;;;;;4963276;28;20521;-75
2023/09/15 06:20:55;;;;;;;1.50;1.10;;;14.00;98.20;;;;;;4962007;28;20458;-77
2023/09/15 06:23:21;;;;;;;1.60;1.10;;;14.20;98.20;;;;;;4981570;28;20552;-76
2023/09/15 06:25:48;;;;;;;1.50;1.00;;;14.30;98.20;;;;;;4962811;28;20477;-77
2023/09/15 06:28:15;;;;;;;1.50;1.00;;;14.40;98.20;;;;;;4977642;28;20499;-77
2023/09/15 06:30:42;;;;;;;1.50;1.00;;;14.40;98.20;;;;;;4967454;28;20502;-77
2023/09/15 06:33:09;;;;;;;1.57;1.10;;;14.40;98.20;;;;;;4967589;28;20493;-76
2023/09/15 06:35:36;;;;;;;1.50;1.00;;;14.50;98.20;;;;;;4968474;28;20491;-79
2023/09/15 06:38:06;;;;;;;1.50;1.00;;;14.50;98.20;;;;;;4970127;28;20485;-79
2023/09/15 06:40:34;;;;;;;1.50;1.00;;;14.60;98.20;;;;;;4969873;28;20489;-79
2023/09/15 06:43:04;;;;;;;1.50;1.00;;;14.80;98.20;;;;;;4973024;28;20501;-77
2023/09/15 06:45:31;;;;;;;1.50;1.13;;;14.90;98.20;;;;;;4979367;28;20552;-79
2023/09/15 06:47:58;;;;;;;1.50;1.10;;;15.00;98.20;;;;;;4970528;28;20496;-74
2023/09/15 06:50:25;;;;;;;1.50;1.10;;;15.10;98.20;;;;;;4972322;28;20561;-76
2023/09/15 06:52:53;;;;;;;1.50;1.03;;;15.30;98.20;;;;;;4969559;28;20481;-77
2023/09/15 06:55:21;;;;;;;1.50;1.00;;;15.40;98.20;;;;;;4972843;28;20539;-76
2023/09/15 06:57:48;;;;;;;1.57;1.07;;;15.50;98.20;;;;;;4970825;28;20480;-79
2023/09/15 07:00:15;;;;;;;1.50;1.00;;;15.70;98.20;;;;;;4967907;28;20462;-77
2023/09/15 07:02:41;;;;;;;1.53;1.10;;;15.70;98.20;;;;;;4972950;28;20508;-76
2023/09/15 07:05:08;;;;;;;1.50;1.00;;;15.80;98.20;;;;;;4973690;28;20486;-78
2023/09/15 07:07:35;;;;;;;1.53;1.00;;;16.00;98.20;;;;;;4977739;28;20488;-78
2023/09/15 07:10:02;;;;;;;1.53;1.00;;;16.10;98.20;;;;;;4976606;28;20548;-80
2023/09/15 07:12:30;;;;;;;1.57;1.17;;;16.20;98.20;;;;;;4973488;28;20477;-75
2023/09/15 07:15:00;;;;;;;1.50;1.00;;;16.40;98.20;;;;;;4974901;28;20493;-78
2023/09/15 07:17:27;;;;;;;1.50;1.00;;;16.50;98.20;;;;;;4973792;28;20477;-79
2023/09/15 07:19:54;;;;;;;1.50;1.00;;;16.60;98.20;;;;;;4973732;28;20549;-80
2023/09/15 07:22:21;;;;;;;1.70;1.27;;;16.70;98.20;;;;;;4967308;28;20481;-82
2023/09/15 07:24:47;;;;;;;1.50;0.90;;;16.80;98.20;;;;;;4973749;28;20491;-80
2023/09/15 07:27:14;;;;;;;1.50;0.90;;;17.00;98.20;;;;;;4975008;28;20477;-81
2023/09/15 07:29:42;;;;;;;1.50;1.00;;;17.10;98.20;;;;;;4973268;28;20462;-79
2023/09/15 07:32:09;;;;;;;1.50;1.00;;;17.20;98.20;;;;;;4972929;28;20511;-79
2023/09/15 07:34:36;;;;;;;1.50;1.00;;;17.40;98.20;;;;;;4973572;28;20559;-79
2023/09/15 07:37:05;;;;;;;1.50;1.00;;;17.50;98.20;;;;;;4968179;28;20489;-79
2023/09/15 07:39:33;;;;;;;1.50;0.90;;;17.60;98.20;;;;;;4973235;28;20490;-78
2023/09/15 07:42:00;;;;;;;1.50;0.90;;;17.60;98.20;;;;;;4968489;28;20566;-80
2023/09/15 07:44:27;;;;;;;1.50;0.90;;;17.50;98.20;;;;;;4973854;28;20501;-79
2023/09/15 07:46:56;;;;;;;1.50;0.90;;;17.50;98.20;;;;;;4970514;28;20481;-80
2023/09/15 07:49:23;;;;;;;1.50;0.90;;;17.50;98.20;;;;;;4978054;28;20533;-78
2023/09/15 07:51:50;;;;;;;1.50;0.90;;;17.50;98.20;;;;;;4967797;28;20887;-79
2023/09/15 07:54:19;;;;;;;1.50;0.90;;;17.60;98.20;;;;;;4976565;28;20513;-79
2023/09/15 07:56:45;;;;;;;1.50;0.90;;;17.70;98.20;;;;;;4960497;28;20494;-78
2023/09/15 07:59:13;;;;;;;1.50;1.00;;;17.90;98.20;;;;;;4965462;28;20868;-80
2023/09/15 08:01:40;;;;;;;1.50;1.00;;;18.00;98.20;;;;;;4961340;28;20477;-80
2023/09/15 08:04:08;;;;;;;1.73;1.63;;;18.10;98.20;;;;;;4972434;28;20488;-79
2023/09/15 08:06:35;;;;;;;1.50;0.90;;;18.20;98.20;;;;;;4963564;28;20496;-78
2023/09/15 08:09:04;;;;;;;1.70;1.50;;;18.30;98.20;;;;;;4976385;28;20474;-78
2023/09/15 08:11:34;;;;;;;1.50;0.90;;;18.50;98.20;;;;;;4955376;28;21051;-81
2023/09/15 08:14:01;;;;;;;1.50;1.00;;;18.60;98.20;;;;;;4973792;28;20497;-78
2023/09/15 08:16:28;;;;;;;1.50;0.90;;;18.70;98.20;;;;;;4961966;28;20485;-81
2023/09/15 08:21:25;;;;;;;1.50;0.90;;;19.10;98.20;;;;;;4902859;28;21161;-77
2023/09/15 08:23:52;;;;;;;1.50;0.90;;;19.30;98.20;;;;;;4924577;29;20469;-78
2023/09/15 08:26:18;;;;;;;1.50;0.90;;;19.20;98.20;;;;;;4913002;28;20504;-78
2023/09/15 08:28:46;;;;;;;1.50;0.90;;;19.30;98.20;;;;;;4923724;29;21587;-80
2023/09/15 08:31:13;;;;;;;1.50;0.90;;;19.40;98.20;;;;;;4908412;28;20468;-80
2023/09/15 08:33:40;;;;;;;1.50;1.00;;;19.60;98.20;;;;;;4924705;29;20481;-79
2023/09/15 08:36:07;;;;;;;1.50;0.90;;;19.60;98.20;;;;;;4907475;28;21225;-78
2023/09/15 08:38:35;;;;;;;1.50;0.90;;;19.70;98.20;;;;;;4934502;29;20464;-79
2023/09/15 08:41:10;;;;;;;1.50;0.90;;;19.90;98.20;;;;;;4909534;28;20516;-80
2023/09/15 08:43:38;;;;;;;1.50;0.90;;;20.00;98.20;;;;;;4936901;29;20483;-79
2023/09/15 08:46:06;;;;;;;1.50;0.90;;;20.10;98.20;;;;;;4907978;28;20484;-80
2023/09/15 08:48:40;;;;;;;1.50;0.93;;;20.20;98.20;;;;;;4938338;29;20480;-81
2023/09/15 08:51:07;;;;;;;1.50;0.90;;;20.30;97.90;;;;;;4915166;28;20479;-80
2023/09/15 08:53:36;;;;;;;1.50;0.90;;;20.40;98.20;;;;;;4938519;29;20482;-80
2023/09/15 08:56:04;;;;;;;1.50;0.90;;;20.50;98.20;;;;;;4908599;28;20492;-81
2023/09/15 08:58:31;;;;;;;1.50;0.90;;;20.70;98.20;;;;;;4928523;29;20480;-78
2023/09/15 09:00:59;;;;;;;1.50;0.90;;;20.80;97.80;;;;;;4906301;28;20520;-78
2023/09/15 09:03:26;;;;;;;1.50;0.90;;;20.80;96.10;;;;;;4936725;29;20468;-80
2023/09/15 09:05:55;;;;;;;1.50;0.90;;;20.80;96.70;;;;;;4907474;28;20832;-78
2023/09/15 09:08:24;;;;;;;1.50;0.90;;;20.90;97.10;;;;;;4929369;29;20917;-81
2023/09/15 09:10:53;;;;;;;1.60;1.00;;;21.00;97.40;;;;;;4907744;28;20518;-80
2023/09/15 09:13:22;;;;;;;1.50;0.90;;;21.10;96.70;;;;;;4936803;29;20541;-81
2023/09/15 09:15:51;;;;;;;1.50;0.90;;;21.20;96.90;;;;;;4908162;28;20503;-81
2023/09/15 09:18:19;;;;;;;1.50;0.90;;;21.40;96.60;;;;;;4937347;29;20465;-79
2023/09/15 09:20:49;;;;;;;1.50;0.90;;;21.50;96.60;;;;;;4914253;28;20502;-81
2023/09/15 09:23:17;;;;;;;1.50;0.90;;;21.60;95.70;;;;;;4934468;29;20481;-78
2023/09/15 09:25:46;;;;;;;1.50;0.90;;;21.80;95.80;;;;;;4917054;29;20488;-80
2023/09/15 09:28:14;;;;;;;1.50;0.90;;;21.90;95.20;;;;;;4934722;28;20481;-80
2023/09/15 09:30:41;;;;;;;1.50;0.90;;;22.10;95.60;;;;;;4915664;29;20610;-80
2023/09/15 09:33:10;;;;;;;1.50;0.90;;;22.20;93.80;;;;;;4931073;28;20591;-80
2023/09/15 09:35:37;;;;;;;1.50;0.90;;;22.30;93.70;;;;;;4914442;29;20509;-78
2023/09/15 09:38:04;;;;;;;1.50;0.90;;;22.30;94.10;;;;;;4922219;28;21026;-78
2023/09/15 09:40:33;;;;;;;1.60;1.20;;;22.50;93.30;;;;;;4914740;29;20595;-78
2023/09/15 09:43:00;;;;;;;1.47;0.90;;;22.50;92.40;;;;;;4918849;28;20494;-79
2023/09/15 09:45:30;;;;;;;1.50;0.90;;;22.60;93.50;;;;;;4907900;29;20869;-79
2023/09/15 09:47:58;;;;;;;1.50;0.90;;;22.70;92.60;;;;;;4917935;28;20578;-79
2023/09/15 09:50:26;;;;;;;1.50;0.90;;;22.80;93.20;;;;;;4911413;29;20496;-79
2023/09/15 09:52:53;;;;;;;1.43;0.90;;;23.00;92.90;;;;;;4915285;28;20479;-79
2023/09/15 09:55:21;;;;;;;1.50;0.90;;;23.20;92.70;;;;;;4911887;29;20465;-79
2023/09/15 09:57:48;;;;;;;1.50;0.90;;;23.40;91.30;;;;;;4909892;28;21231;-79
2023/09/15 10:00:18;;;;;;;1.50;0.90;;;23.50;91.00;;;;;;4910596;29;20611;-79
2023/09/15 10:02:47;;;;;;;1.50;0.90;;;23.70;90.60;;;;;;4903722;29;20701;-80
2023/09/15 10:05:15;;;;;;;1.50;0.90;;;23.90;91.00;;;;;;4911448;29;20486;-80
2023/09/15 10:07:45;;;;;;;1.50;0.90;;;24.10;89.60;;;;;;4910962;28;20522;-80
2023/09/15 10:10:15;;;;;;;1.50;0.90;;;24.10;89.40;;;;;;4906154;29;20493;-80
2023/09/15 10:12:42;;;;;;;1.50;0.80;;;24.30;89.90;;;;;;4908377;28;20583;-80
2023/09/15 10:15:11;;;;;;;1.50;0.90;;;24.50;88.50;;;;;;4910989;29;20480;-80
2023/09/15 10:17:39;;;;;;;1.50;0.90;;;24.50;88.70;;;;;;4909940;28;20503;-80
2023/09/15 10:20:10;;;;;;;1.50;0.90;;;24.60;86.60;;;;;;4911353;29;20552;-79
2023/09/15 10:22:38;;;;;;;1.50;0.90;;;24.60;86.50;;;;;;4915588;28;20511;-80
2023/09/15 10:25:23;;;;;;;1.43;0.90;;;24.70;87.10;;;;;;4916859;29;20539;-82
2023/09/15 10:27:50;;;;;;;1.50;1.13;;;24.80;86.80;;;;;;4909065;29;20491;-80
2023/09/15 10:30:17;;;;;;;1.50;0.90;;;24.80;85.30;;;;;;4909906;29;20520;-79
2023/09/15 10:32:45;;;;;;;1.47;0.90;;;24.90;84.70;;;;;;4914894;28;20530;-79
2023/09/15 10:35:24;;;;;;;1.50;0.90;;;24.90;85.60;;;;;;4910018;29;20497;-79
2023/09/15 10:37:57;;;;;;;1.50;0.90;;;24.90;85.90;;;;;;4920073;28;20570;-81
2023/09/15 10:40:24;;;;;;;1.50;0.90;;;25.00;85.00;;;;;;4908421;29;20493;-81
2023/09/15 10:42:54;;;;;;;1.47;0.80;;;25.00;85.30;;;;;;4915202;28;20686;-80
2023/09/15 10:45:21;;;;;;;1.50;0.90;;;25.20;86.70;;;;;;4913300;29;20472;-80
2023/09/15 10:47:56;;;;;;;2.00;1.67;;;25.40;85.40;;;;;;4917038;28;21006;-79
2023/09/15 10:50:32;;;;;;;1.50;0.90;;;25.40;84.50;;;;;;4914029;29;20889;-79
2023/09/15 10:53:08;;;;;;;1.50;0.90;;;25.50;83.70;;;;;;4916957;28;20518;-79
2023/09/15 10:55:35;;;;;;;1.70;1.10;;;25.60;84.90;;;;;;4908656;29;20890;-79
2023/09/15 10:58:12;;;;;;;1.50;0.90;;;25.50;83.80;;;;;;4913118;28;20915;-82
2023/09/15 11:00:40;;;;;;;1.47;0.90;;;25.50;83.90;;;;;;4909098;29;20488;-80
2023/09/15 11:03:07;;;;;;;1.47;0.80;;;25.40;84.10;;;;;;4913829;28;20486;-80
2023/09/15 11:05:36;;;;;;;1.43;0.80;;;25.30;82.10;;;;;;4910618;29;20842;-79
2023/09/15 11:08:03;;;;;;;1.50;0.83;;;25.30;83.30;;;;;;4909634;28;20511;-80
2023/09/15 11:10:32;;;;;;;1.47;0.80;;;25.40;83.40;;;;;;4908161;29;20708;-80
2023/09/15 11:13:00;;;;;;;1.50;0.90;;;25.50;82.20;;;;;;4913213;28;20587;-80
2023/09/15 11:15:28;;;;;;;1.40;0.80;;;25.50;82.40;;;;;;4911306;29;20495;-79
2023/09/15 11:17:55;;;;;;;1.43;0.80;;;25.50;81.80;;;;;;4906607;28;20582;-78
2023/09/15 11:20:22;;;;;;;1.50;0.90;;;25.60;83.10;;;;;;4911435;29;20524;-79
2023/09/15 11:22:57;;;;;;;1.50;1.10;;;25.80;83.30;;;;;;4916789;28;20963;-78
2023/09/15 11:25:24;;;;;;;1.50;0.90;;;25.90;83.30;;;;;;4903532;29;20997;-80
2023/09/15 11:27:53;;;;;;;1.40;0.80;;;25.90;82.00;;;;;;4920950;28;20546;-79
2023/09/15 11:30:26;;;;;;;1.40;0.87;;;25.90;82.90;;;;;;4912524;29;20502;-80
2023/09/15 11:32:53;;;;;;;1.50;0.80;;;26.00;83.00;;;;;;4913580;28;20479;-80
2023/09/15 11:35:24;;;;;;;1.50;0.83;;;25.90;81.50;;;;;;4912490;29;20475;-80
2023/09/15 11:37:52;;;;;;;1.50;0.90;;;25.80;81.10;;;;;;4917594;28;20941;-80
2023/09/15 11:40:24;;;;;;;1.47;0.80;;;25.80;81.00;;;;;;4910155;29;20489;-82
2023/09/15 11:42:55;;;;;;;1.47;0.90;;;25.90;81.90;;;;;;4915476;28;20483;-81
2023/09/15 11:45:25;;;;;;;1.43;0.80;;;26.00;80.70;;;;;;4915657;29;20502;-82
2023/09/15 11:47:52;;;;;;;1.47;0.80;;;26.00;80.00;;;;;;4915624;28;21191;-82
2023/09/15 11:50:23;;;;;;;1.40;0.90;;;26.10;80.60;;;;;;4911869;29;20494;-80
2023/09/15 11:52:50;;;;;;;1.47;0.87;;;25.90;79.20;;;;;;4908415;29;20480;-80
2023/09/15 11:55:19;;;;;;;1.43;0.90;;;25.80;79.30;;;;;;4910249;29;21063;-81
2023/09/15 11:57:48;;;;;;;1.47;0.90;;;25.70;79.70;;;;;;4916351;28;20500;-79
2023/09/15 12:00:16;;;;;;;1.43;0.90;;;25.60;80.60;;;;;;4914771;29;20877;-79
2023/09/15 12:02:45;;;;;;;1.50;0.80;;;25.70;80.90;;;;;;4914352;28;20850;-80
2023/09/15 12:05:12;;;;;;;1.43;0.80;;;25.70;79.40;;;;;;4913688;29;20468;-80
2023/09/15 12:07:39;;;;;;;1.43;0.90;;;25.70;79.00;;;;;;4917171;28;20503;-80
2023/09/15 12:10:07;;;;;;;1.50;0.90;;;25.80;80.00;;;;;;4914743;29;20499;-81
2023/09/15 12:12:36;;;;;;;1.47;0.80;;;25.90;79.40;;;;;;4914583;28;20498;-80
2023/09/15 12:15:07;;;;;;;1.43;0.80;;;25.70;79.90;;;;;;4915241;29;20477;-81
2023/09/15 12:17:34;;;;;;;1.47;0.90;;;25.90;79.80;;;;;;4913213;28;20998;-80
2023/09/15 12:20:02;;;;;;;1.43;0.90;;;26.00;79.30;;;;;;4911939;29;21044;-80
2023/09/15 12:22:40;;;;;;;1.40;0.80;;;26.20;79.20;;;;;;4913600;28;20539;-79
2023/09/15 12:25:10;;;;;;;1.43;0.90;;;26.40;79.50;;;;;;4912634;29;20501;-79
2023/09/15 12:27:39;;;;;;;1.47;0.80;;;26.40;79.50;;;;;;4913125;28;20498;-79
2023/09/15 12:30:11;;;;;;;1.43;0.90;;;26.60;78.10;;;;;;4913578;29;20496;-80
2023/09/15 12:32:39;;;;;;;1.47;0.87;;;26.70;77.50;;;;;;4920010;28;20580;-81
2023/09/15 12:35:11;;;;;;;1.40;0.80;;;26.80;77.50;;;;;;4913859;29;21142;-79
2023/09/15 12:37:43;;;;;;;1.43;0.80;;;26.70;73.10;;;;;;4915288;28;20707;-80
2023/09/15 12:40:11;;;;;;;1.40;0.83;;;26.70;78.40;;;;;;4912462;29;20491;-80
2023/09/15 12:42:38;;;;;;;1.47;0.80;;;26.90;76.60;;;;;;4911584;28;20487;-78
2023/09/15 12:45:06;;;;;;;1.40;0.80;;;26.80;77.70;;;;;;4911685;29;20470;-80
2023/09/15 12:47:35;;;;;;;1.40;0.90;;;27.00;77.20;;;;;;4911235;28;20553;-77
2023/09/15 12:50:05;;;;;;;1.47;0.80;;;27.10;77.70;;;;;;4910653;29;20650;-78
2023/09/15 12:52:42;;;;;;;1.50;0.80;;;27.30;76.20;;;;;;4915798;28;20494;-80
2023/09/15 12:55:32;;;;;;;1.43;0.80;;;27.50;74.00;;;;;;4912683;29;20558;-80
2023/09/15 12:59:27;;;;;;;1.40;0.80;;;27.10;74.10;;;;;;4915995;28;20897;-79